SARP/PSS METAR and TAF weather

Enter ICAO airport designator
Station Type Date Time Source
SARP METAR 2022/01/27 23:00 UTC NOAA

SARP 272300Z 23013KT 9999 -RA SCT030 OVC050 27/21 Q1010


Station Type Date Time Source
SARP Decoded METAR 2022/01/27 23:00 UTC NOAA

Posadas Aero., Argentina (SARP) 27-22S 055-58W 133M
Jan 27, 2022 - 06:00 PM EST / 2022.01.27 2300 UTC
Wind: from the SW (230 degrees) at 15 MPH (13 KT):0
Visibility: greater than 7 mile(s):0
Sky conditions: overcast
Weather: light rain
Temperature: 80 F (27 C)
Dew Point: 69 F (21 C)
Relative Humidity: 69%
Pressure (altimeter): 29.83 in. Hg (1010 hPa)
ob: SARP 272300Z 23013KT 9999 -RA SCT030 OVC050 27/21 Q1010
cycle: 23

Station Type Date Time Source
SARP TAF 2022/01/27 18:33 UTC NOAA

TAF SARP 271700Z 2718/2818 14005KT 9999 SCT030 BKN100 TX28/2719Z TN20/2810Z PROB40
TEMPO 2719/2723 8000 -RA DZ OVC020
BECMG 2804/2806 CAVOK

Example: see airport list